Miramar Marine Corps Air Station
KNKX : now visible

Airfield :











YOU CAN JOIN US ON...

 
LOGIN :

Register | Disclaimer

   EN    FR    IT 

 









Legend :    VFR   Marginal VFR   IFR   Intensive IFR   Very Intensive IFR
Visi :
Ceiling :
>= 8 km
>= 3000ft
5 to 8 km
1000 to 3000 ft
1500m to 5 km
500 to 1000 ft
800 to 1500m
200 to 500 ft
< 800m
< 200 ft
Symbols :   Thunderstorms  Fog  Heavy snow  Heavy precipitations  Wind > 20 kt






- Airport Elevation : 477 ft


KNKX - Miramar Marine Corps Air Station

CURRENT METAR :
  • 280155Z 28005KT 8SM CLR 15/12 A3002 RMK AO2 SLP161 T01500117 $

EXPIRED METARs :
  • 272355Z 26009KT 9SM FEW016 17/12 A3002 RMK AO2 SLP162 T01720122 10200 20167 56007 $
  • 272255Z 27008G16KT 9SM FEW017 18/12 A3003 RMK AO2 SLP163 T01830122 $

TAF TAF KNKX
Valid from the 28 at 03:00 until the 29 at 03:00 UTC


2803/2903 27010KT 9999 FEW020 QNH3001INS
BECMG 2805/2807 30005KT 9999 BKN015 QNH3003INS
FM280830 VRB02KT 5400 BR OVC012 QNH3002INS
BECMG 2817/2819 9999 SCT015 QNH3003INS T13/2813Z T18/2822Z
KZLA FIR / North America



MET'MAP, your aeronautical weather chart ! - Copyright ORBIFLY December 2007 - Disclaimer

ORBIFLY MET'MAP TEAM :

Programming & Development : Alexandra Zaïnal
Original concept : Baudouin d'Aumeries
Technical & hardware support : Manuel Goepfert
Assistance : Marc-Olivier Méhu




SOURCES & CREDITS :

   NOAA       Earth
Advisory